| time (UTC) | temp C | wind direction | speed KPH | gust KPH | rain 1hr cm | rain 24hr cm | rain mn cm | humidity % | barometer mb |
| 20260903165706 | 30 | 0.0 | 0.0 | 0.00 | 0.00 | 0.00 | 45 | 1017.2 | |
| 20260903164703 | 31 | 315 | 0.0 | 1.6 | 0.00 | 0.00 | 0.00 | 46 | 1017.1 |
| 20260903163700 | 31 | 270 | 0.0 | 4.8 | 0.00 | 0.00 | 0.00 | 45 | 1017.1 |
| 20260903161816 | 31 | 0.0 | 1.6 | 0.00 | 0.00 | 0.00 | 41 | 1017.1 | |
| 20260903160832 | 31 | 0.0 | 0.0 | 0.00 | 0.00 | 0.00 | 41 | 1017.1 | |
| 20260903155802 | 31 | 0.0 | 0.0 | 0.00 | 0.00 | 0.00 | 40 | 1017.3 | |
| 20260903154758 | 31 | 315 | 0.0 | 3.2 | 0.00 | 0.00 | 0.00 | 39 | 1017.2 |
| 20260903153755 | 31 | 0.0 | 0.0 | 0.00 | 0.00 | 0.00 | 43 | 1017.0 | |
| 20260903152751 | 31 | 0.0 | 0.0 | 0.00 | 0.00 | 0.00 | 44 | 1017.2 | |
| 20260903151747 | 31 | 0.0 | 1.6 | 0.00 | 0.00 | 0.00 | 43 | 1017.1 | |
| 20260903150744 | 32 | 0.0 | 0.0 | 0.00 | 0.00 | 0.00 | 42 | 1017.3 | |
| 20260903145740 | 32 | 0.0 | 0.0 | 0.00 | 0.00 | 0.00 | 42 | 1017.4 | |
| 20260903144736 | 31 | 0.0 | 0.0 | 0.00 | 0.00 | 0.00 | 42 | 1017.2 | |
| 20260903143749 | 31 | 0.0 | 1.6 | 0.00 | 0.00 | 0.00 | 43 | 1017.3 | |
| 20260903142723 | 31 | 0.0 | 3.2 | 0.00 | 0.00 | 0.00 | 43 | 1017.5 | |
| 20260903141802 | 32 | 0.0 | 1.6 | 0.00 | 0.00 | 0.00 | 42 | 1017.4 | |
| 20260903140717 | 32 | 135 | 0.0 | 3.2 | 0.00 | 0.00 | 0.00 | 41 | 1017.8 |
| 20260903135713 | 32 | 0 | 1.6 | 6.4 | 0.00 | 0.00 | 0.00 | 41 | 1017.5 |
| 20260903134724 | 32 | 337 | 0.0 | 1.6 | 0.00 | 0.00 | 0.00 | 45 | 1017.7 |
| 20260903133659 | 32 | 0.0 | 1.6 | 0.00 | 0.00 | 0.00 | 45 | 1017.9 | |
| 20260903131752 | 32 | 315 | 0.0 | 3.2 | 0.00 | 0.00 | 0.00 | 45 | 1018.1 |
| 20260903130749 | 32 | 0.0 | 1.6 | 0.00 | 0.00 | 0.00 | 45 | 1018.3 | |
| 20260903125746 | 32 | 0.0 | 0.0 | 0.00 | 0.00 | 0.00 | 44 | 1018.5 | |
| 20260903124737 | 31 | 0.0 | 1.6 | 0.00 | 0.00 | 0.00 | 45 | 1018.3 | |
| 20260903123727 | 31 | 315 | 0.0 | 3.2 | 0.00 | 0.00 | 0.00 | 46 | 1018.6 |
| 20260903122724 | 31 | 315 | 4.8 | 4.8 | 0.00 | 0.00 | 0.00 | 46 | 1018.6 |
| 20260903121742 | 31 | 315 | 0.0 | 3.2 | 0.00 | 0.00 | 0.00 | 47 | 1018.7 |
| 20260903120717 | 31 | 135 | 0.0 | 3.2 | 0.00 | 0.00 | 0.00 | 47 | 1018.9 |
| 20260903115713 | 30 | 0.0 | 0.0 | 0.00 | 0.00 | 0.00 | 52 | 1019.0 | |
| 20260903114703 | 30 | 112 | 0.0 | 1.6 | 0.00 | 0.00 | 0.00 | 52 | 1019.0 |
| 20260903113659 | 31 | 112 | 0.0 | 1.6 | 0.00 | 0.00 | 0.00 | 49 | 1018.8 |
| 20260903112649 | 30 | 315 | 3.2 | 4.8 | 0.00 | 0.00 | 0.00 | 50 | 1018.8 |
| 20260903111646 | 30 | 135 | 3.2 | 6.4 | 0.00 | 0.00 | 0.00 | 51 | 1018.8 |
| 20260903110636 | 31 | 315 | 0.0 | 3.2 | 0.00 | 0.00 | 0.00 | 50 | 1019.1 |
| 20260903105651 | 30 | 135 | 3.2 | 4.8 | 0.00 | 0.00 | 0.00 | 51 | 1019.2 |
| 20260903104626 | 30 | 315 | 0.0 | 1.6 | 0.00 | 0.00 | 0.00 | 51 | 1019.3 |
| 20260903103644 | 28 | 315 | 3.2 | 9.7 | 0.00 | 0.00 | 0.00 | 55 | 1019.4 |
| 20260903102615 | 28 | 135 | 0.0 | 3.2 | 0.00 | 0.00 | 0.00 | 55 | 1019.6 |
| 20260903101611 | 30 | 315 | 0.0 | 1.6 | 0.00 | 0.00 | 0.00 | 52 | 1019.7 |
| 20260903100605 | 29 | 315 | 1.6 | 3.2 | 0.00 | 0.00 | 0.00 | 54 | 1020.0 |
| 20260903095643 | 30 | 337 | 1.6 | 3.2 | 0.00 | 0.00 | 0.00 | 52 | 1019.7 |
| 20260903094601 | 29 | 270 | 0.0 | 3.2 | 0.00 | 0.00 | 0.00 | 54 | 1019.9 |
| 20260903093559 | 28 | 292 | 3.2 | 4.8 | 0.00 | 0.00 | 0.00 | 55 | 1019.9 |
| 20260903092554 | 27 | 135 | 1.6 | 6.4 | 0.00 | 0.00 | 0.00 | 56 | 1019.8 |
| 20260903091550 | 28 | 135 | 3.2 | 6.4 | 0.00 | 0.00 | 0.00 | 53 | 1019.6 |
| 20260903090547 | 28 | 315 | 3.2 | 4.8 | 0.00 | 0.00 | 0.00 | 53 | 1019.6 |
| 20260903085537 | 27 | 292 | 3.2 | 4.8 | 0.00 | 0.00 | 0.00 | 55 | 1019.9 |
| 20260903084534 | 27 | 112 | 3.2 | 6.4 | 0.00 | 0.00 | 0.00 | 55 | 1019.6 |
| 20260903083529 | 26 | 337 | 4.8 | 9.7 | 0.00 | 0.00 | 0.00 | 56 | 1019.8 |
| 20260903082526 | 27 | 337 | 3.2 | 4.8 | 0.00 | 0.00 | 0.00 | 56 | 1019.8 |
| 20260903081542 | 27 | 292 | 3.2 | 4.8 | 0.00 | 0.00 | 0.00 | 55 | 1019.8 |
| 20260903075540 | 27 | 315 | 3.2 | 6.4 | 0.00 | 0.00 | 0.00 | 56 | 1019.5 |
| 20260903074537 | 25 | 315 | 4.8 | 9.7 | 0.00 | 0.00 | 0.00 | 58 | 1019.4 |
| 20260903073524 | 25 | 292 | 4.8 | 6.4 | 0.00 | 0.00 | 0.00 | 59 | 1019.3 |
| 20260903072518 | 25 | 315 | 4.8 | 9.7 | 0.00 | 0.00 | 0.00 | 60 | 1019.4 |
| 20260903071515 | 25 | 315 | 4.8 | 6.4 | 0.00 | 0.00 | 0.00 | 60 | 1019.4 |
| 20260903070512 | 25 | 315 | 3.2 | 4.8 | 0.00 | 0.00 | 0.00 | 60 | 1019.4 |
| 20260903064609 | 23 | 315 | 3.2 | 4.8 | 0.00 | 0.00 | 0.00 | 63 | 1019.2 |
| 20260903063545 | 23 | 315 | 3.2 | 6.4 | 0.00 | 0.00 | 0.00 | 65 | 1019.2 |
| 20260903062624 | 23 | 315 | 3.2 | 4.8 | 0.00 | 0.00 | 0.00 | 64 | 1019.1 |
| 20260903061537 | 22 | 315 | 3.2 | 4.8 | 0.00 | 0.00 | 0.00 | 64 | 1019.0 |
| 20260903060528 | 22 | 315 | 3.2 | 3.2 | 0.00 | 0.00 | 0.00 | 67 | 1018.8 |
| 20260903055543 | 21 | 315 | 1.6 | 3.2 | 0.00 | 0.00 | 0.00 | 68 | 1018.8 |
| 20260903054519 | 21 | 292 | 3.2 | 3.2 | 0.00 | 0.00 | 0.00 | 68 | 1018.5 |
| 20260903053516 | 21 | 315 | 1.6 | 3.2 | 0.00 | 0.00 | 0.00 | 70 | 1018.7 |
| 20260903052513 | 21 | 315 | 1.6 | 3.2 | 0.00 | 0.00 | 0.00 | 71 | 1018.5 |
| 20260903051506 | 20 | 315 | 1.6 | 3.2 | 0.00 | 0.00 | 0.00 | 73 | 1018.5 |
| 20260903051002 | 20 | 315 | 1.6 | 3.2 | 0.00 | 0.00 | 0.00 | 74 | 1018.5 |
| 20260903045959 | 20 | 315 | 0.0 | 1.6 | 0.00 | 0.00 | 0.00 | 76 | 1018.4 |
| 20260903044954 | 20 | 315 | 3.2 | 3.2 | 0.00 | 0.00 | 0.00 | 78 | 1018.2 |
| 20260903043951 | 20 | 0.0 | 0.0 | 0.00 | 0.00 | 0.00 | 78 | 1018.5 | |
| 20260903043008 | 20 | 0.0 | 0.0 | 0.00 | 0.00 | 0.00 | 78 | 1018.5 | |
| 20260903041937 | 20 | 0.0 | 0.0 | 0.00 | 0.00 | 0.00 | 78 | 1018.2 | |
| 20260903040935 | 20 | 0.0 | 0.0 | 0.00 | 0.00 | 0.00 | 79 | 1018.2 | |
| 20260903035930 | 20 | 0.0 | 0.0 | 0.00 | 0.00 | 0.00 | 79 | 1018.2 | |
| 20260903034947 | 20 | 0.0 | 0.0 | 0.00 | 0.00 | 0.00 | 79 | 1018.1 | |
| 20260903033943 | 20 | 0.0 | 0.0 | 0.00 | 0.00 | 0.00 | 77 | 1018.1 | |
| 20260903032914 | 20 | 0.0 | 0.0 | 0.00 | 0.00 | 0.00 | 75 | 1018.1 | |
| 20260903031910 | 21 | 0.0 | 0.0 | 0.00 | 0.00 | 0.00 | 74 | 1017.9 | |
| 20260903030949 | 21 | 0.0 | 0.0 | 0.00 | 0.00 | 0.00 | 74 | 1017.6 | |
| 20260903025903 | 21 | 315 | 0.0 | 1.6 | 0.00 | 0.00 | 0.00 | 74 | 1017.8 |
| 20260903024919 | 21 | 0.0 | 0.0 | 0.00 | 0.00 | 0.00 | 75 | 1017.9 | |
| 20260903023510 | 21 | 0.0 | 0.0 | 0.00 | 0.00 | 0.00 | 76 | 1018.1 | |
| 20260903022506 | 21 | 0.0 | 0.0 | 0.00 | 0.00 | 0.00 | 76 | 1017.8 | |
| 20260903021503 | 21 | 0.0 | 0.0 | 0.00 | 0.00 | 0.00 | 77 | 1018.1 | |
| 20260903021001 | 21 | 0.0 | 0.0 | 0.00 | 0.00 | 0.00 | 77 | 1017.9 | |
| 20260903020018 | 21 | 315 | 1.6 | 3.2 | 0.00 | 0.00 | 0.00 | 79 | 1018.1 |
| 20260903014954 | 21 | 0.0 | 0.0 | 0.00 | 0.00 | 0.00 | 79 | 1017.6 | |
| 20260903013953 | 21 | 0.0 | 0.0 | 0.00 | 0.00 | 0.00 | 79 | 1017.7 | |
| 20260903012947 | 21 | 337 | 1.6 | 3.2 | 0.00 | 0.00 | 0.00 | 79 | 1017.7 |
| 20260903011958 | 21 | 0.0 | 0.0 | 0.00 | 0.00 | 0.00 | 79 | 1017.8 | |
| 20260903010934 | 21 | 0.0 | 0.0 | 0.00 | 0.00 | 0.00 | 78 | 1017.8 | |
| 20260903005951 | 21 | 0.0 | 0.0 | 0.00 | 0.00 | 0.00 | 78 | 1017.8 | |
| 20260903004927 | 21 | 0.0 | 0.0 | 0.00 | 0.00 | 0.00 | 77 | 1017.6 | |
| 20260903003923 | 22 | 0.0 | 1.6 | 0.00 | 0.00 | 0.00 | 77 | 1017.6 | |
| 20260903002454 | 22 | 0.0 | 0.0 | 0.00 | 0.00 | 0.00 | 77 | 1017.9 | |
| 20260903001449 | 22 | 0.0 | 0.0 | 0.00 | 0.00 | 0.00 | 76 | 1017.9 | |
| 20260903000440 | 22 | 0.0 | 0.0 | 0.00 | 0.00 | 0.00 | 77 | 1017.9 | |
| 20260902235437 | 21 | 0.0 | 0.0 | 0.00 | 0.00 | 0.00 | 77 | 1017.7 | |
| 20260902234453 | 21 | 0.0 | 0.0 | 0.00 | 0.00 | 0.00 | 78 | 1017.7 | |
| 20260902233429 | 22 | 0.0 | 0.0 | 0.00 | 0.00 | 0.00 | 75 | 1017.8 | |
| 20260902232425 | 22 | 0.0 | 0.0 | 0.00 | 0.00 | 0.00 | 73 | 1017.7 | |
| 20260902231423 | 22 | 0.0 | 0.0 | 0.00 | 0.00 | 0.00 | 74 | 1017.7 | |
| 20260902230438 | 22 | 0.0 | 1.6 | 0.00 | 0.00 | 0.00 | 74 | 1017.7 | |
| 20260902225415 | 22 | 0.0 | 0.0 | 0.00 | 0.00 | 0.00 | 73 | 1017.5 | |
| 20260902224414 | 23 | 315 | 0.0 | 1.6 | 0.00 | 0.00 | 0.00 | 72 | 1017.7 |
| 20260902223408 | 23 | 0.0 | 0.0 | 0.00 | 0.00 | 0.00 | 72 | 1017.6 | |
| 20260902222425 | 23 | 0.0 | 1.6 | 0.00 | 0.00 | 0.00 | 73 | 1017.5 | |
| 20260902221401 | 23 | 0.0 | 0.0 | 0.00 | 0.00 | 0.00 | 74 | 1017.4 | |
| 20260902220352 | 23 | 0.0 | 0.0 | 0.00 | 0.00 | 0.00 | 73 | 1017.3 | |
| 20260902215348 | 23 | 315 | 1.6 | 3.2 | 0.00 | 0.00 | 0.00 | 72 | 1017.4 |
| 20260902214345 | 24 | 0.0 | 1.6 | 0.00 | 0.00 | 0.00 | 71 | 1017.3 | |
| 20260902213341 | 25 | 0.0 | 0.0 | 0.00 | 0.00 | 0.00 | 69 | 1017.2 | |
| 20260902212339 | 25 | 0.0 | 0.0 | 0.00 | 0.00 | 0.00 | 68 | 1017.1 | |
| 20260902211349 | 25 | 0.0 | 0.0 | 0.00 | 0.00 | 0.00 | 67 | 1017.2 | |
| 20260902210324 | 25 | 0.0 | 0.0 | 0.00 | 0.00 | 0.00 | 67 | 1017.1 | |
| 20260902205342 | 25 | 0.0 | 0.0 | 0.00 | 0.00 | 0.00 | 67 | 1017.2 | |
| 20260902204317 | 25 | 0.0 | 1.6 | 0.00 | 0.00 | 0.00 | 66 | 1017.0 | |
| 20260902203314 | 25 | 0.0 | 0.0 | 0.00 | 0.00 | 0.00 | 66 | 1017.1 | |
| 20260902202331 | 25 | 337 | 0.0 | 1.6 | 0.00 | 0.00 | 0.00 | 67 | 1017.1 |
| 20260902201347 | 25 | 0.0 | 0.0 | 0.00 | 0.00 | 0.00 | 66 | 1017.0 | |
| 20260902200303 | 26 | 0.0 | 0.0 | 0.00 | 0.00 | 0.00 | 66 | 1017.0 | |
| 20260902195300 | 26 | 0.0 | 0.0 | 0.00 | 0.00 | 0.00 | 65 | 1017.0 | |
| 20260902194310 | 26 | 0.0 | 0.0 | 0.00 | 0.00 | 0.00 | 64 | 1016.9 | |
| 20260902193246 | 26 | 0.0 | 0.0 | 0.00 | 0.00 | 0.00 | 64 | 1016.9 | |
| 20260902192236 | 26 | 0.0 | 0.0 | 0.00 | 0.00 | 0.00 | 64 | 1016.9 | |
| 20260902191229 | 26 | 0.0 | 0.0 | 0.00 | 0.00 | 0.00 | 63 | 1016.9 | |
| 20260902190226 | 27 | 0.0 | 0.0 | 0.00 | 0.00 | 0.00 | 61 | 1016.7 | |
| 20260902185225 | 27 | 0.0 | 0.0 | 0.00 | 0.00 | 0.00 | 60 | 1016.4 | |
| 20260902184216 | 27 | 0.0 | 0.0 | 0.00 | 0.00 | 0.00 | 59 | 1016.1 | |
| 20260902183213 | 27 | 0.0 | 0.0 | 0.00 | 0.00 | 0.00 | 58 | 1016.3 | |
| 20260902182209 | 28 | 0.0 | 0.0 | 0.00 | 0.00 | 0.00 | 57 | 1016.2 | |
| 20260902181205 | 28 | 0.0 | 0.0 | 0.00 | 0.00 | 0.00 | 55 | 1016.2 | |
| 20260902180202 | 28 | 0.0 | 0.0 | 0.00 | 0.00 | 0.00 | 54 | 1016.3 | |
| 20260902175159 | 29 | 0.0 | 0.0 | 0.00 | 0.00 | 0.00 | 53 | 1016.1 | |
| 20260902174148 | 29 | 337 | 0.0 | 1.6 | 0.00 | 0.00 | 0.00 | 52 | 1015.9 |
| 20260902173139 | 29 | 0.0 | 0.0 | 0.00 | 0.00 | 0.00 | 52 | 1015.8 | |
| 20260902172136 | 30 | 337 | 0.0 | 1.6 | 0.00 | 0.00 | 0.00 | 50 | 1016.0 |
| 20260902171125 | 30 | 0.0 | 1.6 | 0.00 | 0.00 | 0.00 | 48 | 1015.9 | |
| 20260902170121 | 30 | 0.0 | 1.6 | 0.00 | 0.00 | 0.00 | 49 | 1016.0 |